createdAt,value
2022-09-14T00:00:34.011Z,61.15
2022-09-14T00:03:05.174Z,61.05
2022-09-14T00:05:36.080Z,60.91
2022-09-14T00:08:36.152Z,60.57
2022-09-14T00:12:07.451Z,60.49
2022-09-14T00:15:06.993Z,60.20
2022-09-14T00:17:36.404Z,60.21
2022-09-14T00:24:18.520Z,60.02
2022-09-14T00:30:32.921Z,59.96
2022-09-14T00:33:01.694Z,59.83
2022-09-14T00:35:36.640Z,59.90
2022-09-14T00:38:04.829Z,60.01
2022-09-14T00:41:29.559Z,59.69
2022-09-14T00:45:31.921Z,59.66
2022-09-14T00:49:05.811Z,59.70
2022-09-14T00:56:43.625Z,59.58
2022-09-14T00:59:44.424Z,60.09
2022-09-14T01:03:11.433Z,59.99
2022-09-14T01:06:38.980Z,59.75
2022-09-14T01:14:16.053Z,59.87
2022-09-14T01:17:25.053Z,59.81
2022-09-14T01:20:23.044Z,59.33
2022-09-14T01:23:04.014Z,59.66
2022-09-14T01:29:01.191Z,59.04
2022-09-14T01:31:41.997Z,59.16
2022-09-14T01:34:27.408Z,58.96
2022-09-14T01:37:15.378Z,58.94
2022-09-14T01:40:15.842Z,59.07
2022-09-14T01:42:44.305Z,59.01
2022-09-14T01:45:14.835Z,59.32
2022-09-14T01:47:50.156Z,59.34
2022-09-14T01:50:47.321Z,59.35
2022-09-14T01:53:26.277Z,59.11
2022-09-14T01:55:57.564Z,58.84
2022-09-14T01:58:27.993Z,58.70
2022-09-14T02:01:05.897Z,58.81
2022-09-14T02:03:57.933Z,58.42
2022-09-14T02:06:52.748Z,58.29
2022-09-14T02:09:30.959Z,58.60
2022-09-14T02:12:01.231Z,58.46
2022-09-14T02:17:53.730Z,58.53
2022-09-14T02:20:32.858Z,58.70
2022-09-14T02:23:54.520Z,58.50
2022-09-14T02:26:29.227Z,58.37
2022-09-14T02:29:02.300Z,58.40
2022-09-14T02:31:43.902Z,58.46
2022-09-14T02:38:12.295Z,58.17
2022-09-14T02:40:42.110Z,58.22
2022-09-14T02:43:20.926Z,57.93
2022-09-14T02:46:18.227Z,57.75
2022-09-14T02:49:28.014Z,57.83
2022-09-14T02:52:06.294Z,57.84
2022-09-14T02:54:43.721Z,57.79
2022-09-14T02:57:12.393Z,57.93
2022-09-14T02:59:44.083Z,57.69
2022-09-14T03:02:19.348Z,57.64
2022-09-14T03:09:12.506Z,58.03
2022-09-14T03:22:18.716Z,58.22
2022-09-14T03:25:19.943Z,57.97
2022-09-14T03:27:53.802Z,58.06
2022-09-14T03:30:21.848Z,58.05
2022-09-14T03:33:07.553Z,58.16
2022-09-14T03:35:44.731Z,58.19
2022-09-14T03:38:44.167Z,57.99
2022-09-14T03:41:14.154Z,57.83
2022-09-14T03:43:42.390Z,58.22
2022-09-14T03:46:28.512Z,58.30
2022-09-14T03:49:19.461Z,58.33
2022-09-14T03:51:47.446Z,58.38
2022-09-14T03:55:19.286Z,58.60
2022-09-14T03:57:48.936Z,58.25
2022-09-14T04:00:41.487Z,58.63
2022-09-14T04:03:19.975Z,58.39
2022-09-14T04:05:56.708Z,58.39
2022-09-14T04:08:45.230Z,58.39
2022-09-14T04:11:15.127Z,58.58
2022-09-14T04:13:56.203Z,58.55
2022-09-14T04:16:31.304Z,58.54
2022-09-14T04:19:04.473Z,58.50
2022-09-14T04:21:56.721Z,58.91
2022-09-14T04:25:00.272Z,59.12
2022-09-14T04:27:32.406Z,59.08
2022-09-14T04:30:31.435Z,59.12
2022-09-14T04:33:01.260Z,59.36
2022-09-14T04:35:29.323Z,59.45
2022-09-14T04:37:57.360Z,59.46
2022-09-14T04:40:33.150Z,59.68
2022-09-14T04:43:36.036Z,59.66
2022-09-14T04:46:13.827Z,59.89
2022-09-14T04:48:46.714Z,59.93
2022-09-14T04:51:26.587Z,59.88
2022-09-14T04:53:56.433Z,59.81
2022-09-14T04:56:25.115Z,60.07
2022-09-14T04:59:01.856Z,60.25
2022-09-14T05:01:36.054Z,60.22
2022-09-14T05:07:17.512Z,60.11
2022-09-14T05:09:53.718Z,60.02
2022-09-14T05:12:22.267Z,60.31
2022-09-14T05:14:50.402Z,60.18
2022-09-14T05:17:19.894Z,60.26
2022-09-14T05:19:53.714Z,60.18
2022-09-14T05:22:43.002Z,60.06
2022-09-14T05:25:17.378Z,59.97
2022-09-14T05:27:45.599Z,60.05
2022-09-14T05:30:13.874Z,59.74
2022-09-14T05:32:46.427Z,59.86
2022-09-14T05:35:23.662Z,59.89
2022-09-14T05:37:57.820Z,59.95
2022-09-14T05:40:26.549Z,60.10
2022-09-14T05:42:59.784Z,60.03
2022-09-14T05:45:27.972Z,60.04
2022-09-14T05:47:57.471Z,60.07
2022-09-14T05:50:25.732Z,60.14
2022-09-14T05:52:53.735Z,59.73
2022-09-14T05:55:21.822Z,60.07
2022-09-14T05:57:56.324Z,60.14
2022-09-14T06:00:24.512Z,60.13
2022-09-14T06:02:59.668Z,59.64
2022-09-14T06:05:35.803Z,59.91
2022-09-14T06:09:01.337Z,59.63
2022-09-14T06:11:31.050Z,59.47
2022-09-14T06:14:03.192Z,59.55
2022-09-14T06:16:31.415Z,59.35
2022-09-14T06:19:01.056Z,59.39
2022-09-14T06:21:30.309Z,59.39
2022-09-14T06:23:59.371Z,59.08
2022-09-14T06:26:27.555Z,59.07
2022-09-14T06:28:57.574Z,59.17
2022-09-14T06:31:44.266Z,59.04
2022-09-14T06:34:19.168Z,59.03
2022-09-14T06:37:20.005Z,59.18
2022-09-14T06:39:55.718Z,59.17
2022-09-14T06:42:43.145Z,59.08
2022-09-14T06:45:11.626Z,58.78
2022-09-14T06:47:39.770Z,59.26
2022-09-14T06:50:09.724Z,59.07
2022-09-14T06:53:02.673Z,59.47
2022-09-14T06:55:51.626Z,59.39
2022-09-14T06:58:19.731Z,59.27
2022-09-14T07:00:47.870Z,58.84
2022-09-14T07:03:16.592Z,58.76
2022-09-14T07:05:47.915Z,59.09
2022-09-14T07:08:29.346Z,58.68
2022-09-14T07:11:03.582Z,58.41
2022-09-14T07:13:39.973Z,58.49
2022-09-14T07:16:30.927Z,58.20
2022-09-14T07:19:29.839Z,58.67
2022-09-14T07:22:02.747Z,58.31
2022-09-14T07:24:40.076Z,58.17
2022-09-14T07:27:25.662Z,58.14
2022-09-14T07:29:58.545Z,58.66
2022-09-14T07:39:26.876Z,58.76
2022-09-14T07:42:20.850Z,58.26
2022-09-14T07:44:56.511Z,58.25
2022-09-14T07:47:39.185Z,58.22
2022-09-14T07:50:09.723Z,57.92
2022-09-14T07:53:09.555Z,58.18
2022-09-14T07:55:49.144Z,57.85
2022-09-14T07:58:17.375Z,57.75
2022-09-14T08:00:46.987Z,57.99
2022-09-14T08:03:17.314Z,57.75
2022-09-14T08:05:48.110Z,57.66
2022-09-14T08:08:24.725Z,57.41
2022-09-14T08:10:56.135Z,57.57
2022-09-14T08:13:25.504Z,57.17
2022-09-14T08:15:59.138Z,57.23
2022-09-14T08:18:29.573Z,57.34
2022-09-14T08:20:58.005Z,57.33
2022-09-14T08:23:28.589Z,57.44
2022-09-14T08:26:10.803Z,57.38
2022-09-14T08:28:48.592Z,57.21
2022-09-14T08:31:19.405Z,56.98
2022-09-14T08:33:49.472Z,56.85
2022-09-14T08:36:20.091Z,57.01
2022-09-14T08:38:49.878Z,56.60
2022-09-14T08:41:33.333Z,56.60
2022-09-14T08:44:04.531Z,56.50
2022-09-14T08:46:36.006Z,55.55
2022-09-14T08:49:12.154Z,55.52
2022-09-14T08:51:40.430Z,55.82
2022-09-14T08:54:09.700Z,55.58
2022-09-14T08:56:56.858Z,55.18
2022-09-14T08:59:38.029Z,55.04
2022-09-14T09:11:26.002Z,54.53
2022-09-14T09:14:02.297Z,54.58
2022-09-14T09:19:35.529Z,53.67
2022-09-14T09:22:20.173Z,53.52
2022-09-14T09:27:35.126Z,52.67
2022-09-14T09:30:05.484Z,52.47
2022-09-14T09:32:36.456Z,52.38
2022-09-14T09:35:27.939Z,52.20
2022-09-14T09:38:01.548Z,51.68
2022-09-14T09:40:39.844Z,51.57
2022-09-14T09:43:10.124Z,51.17
2022-09-14T09:46:24.467Z,51.41
2022-09-14T09:48:57.860Z,49.70
2022-09-14T09:51:53.265Z,49.68
2022-09-14T09:54:27.671Z,48.76
2022-09-14T09:57:00.953Z,48.71
2022-09-14T09:59:41.971Z,48.36
2022-09-14T10:02:30.987Z,48.76
2022-09-14T10:05:02.047Z,48.41
2022-09-14T10:07:33.756Z,47.80
2022-09-14T10:10:13.053Z,47.04
2022-09-14T10:12:47.661Z,46.85
2022-09-14T10:15:34.389Z,46.13
2022-09-14T10:18:25.127Z,46.60
2022-09-14T10:21:07.771Z,46.36
2022-09-14T10:23:37.493Z,45.92
2022-09-14T10:26:27.055Z,46.09
2022-09-14T10:28:55.352Z,44.75
2022-09-14T10:31:31.239Z,45.37
2022-09-14T10:34:00.949Z,44.85
2022-09-14T10:36:30.991Z,44.25
2022-09-14T10:39:04.554Z,43.26
2022-09-14T10:41:40.198Z,43.57
2022-09-14T10:44:34.283Z,43.46
2022-09-14T10:47:49.871Z,43.33
2022-09-14T10:50:53.943Z,42.93
2022-09-14T10:53:44.582Z,42.82
2022-09-14T10:56:19.554Z,42.39
2022-09-14T10:59:27.624Z,42.26
2022-09-14T11:07:11.037Z,41.76
2022-09-14T11:09:43.567Z,41.90
2022-09-14T11:13:11.924Z,42.55
2022-09-14T11:18:34.694Z,42.11
2022-09-14T11:29:46.811Z,41.06
2022-09-14T11:37:17.460Z,41.34
2022-09-14T11:39:48.808Z,41.71
2022-09-14T11:42:23.237Z,41.52
2022-09-14T11:46:20.533Z,41.91
2022-09-14T12:02:26.661Z,41.72
2022-09-14T12:06:19.531Z,40.44
2022-09-14T12:17:56.031Z,37.67
2022-09-14T12:24:42.218Z,37.67
2022-09-14T12:27:45.574Z,37.87
2022-09-14T12:35:11.550Z,39.02
2022-09-14T12:37:46.124Z,39.25
2022-09-14T12:40:41.133Z,39.51
2022-09-14T12:44:21.343Z,40.11
2022-09-14T12:46:56.059Z,40.37
2022-09-14T12:49:32.765Z,38.89
2022-09-14T12:52:21.084Z,39.18
2022-09-14T12:55:21.274Z,37.42
2022-09-14T12:57:51.184Z,37.21
2022-09-14T13:00:23.005Z,37.50
2022-09-14T13:03:10.782Z,37.75
2022-09-14T13:05:39.037Z,38.05
2022-09-14T13:08:12.628Z,37.35
2022-09-14T13:11:09.732Z,36.44
2022-09-14T13:18:53.417Z,36.56
2022-09-14T13:21:28.690Z,35.64
2022-09-14T13:25:09.167Z,35.55
2022-09-14T13:27:57.714Z,35.65
2022-09-14T13:30:26.236Z,36.37
2022-09-14T13:37:56.462Z,37.65
2022-09-14T13:41:19.770Z,36.79
2022-09-14T13:44:11.991Z,36.43
2022-09-14T13:46:40.196Z,37.74
2022-09-14T13:49:17.298Z,37.94
2022-09-14T13:53:00.001Z,38.37
2022-09-14T13:58:17.020Z,36.02
2022-09-14T14:01:02.281Z,36.02
2022-09-14T14:03:53.137Z,36.22
2022-09-14T14:07:09.565Z,35.53
2022-09-14T14:09:46.909Z,36.83
2022-09-14T14:12:33.232Z,36.76
2022-09-14T14:15:02.271Z,37.19
2022-09-14T14:17:40.052Z,37.15
2022-09-14T14:20:37.397Z,37.18
2022-09-14T14:23:56.683Z,36.69
2022-09-14T14:26:33.846Z,35.75
2022-09-14T14:29:10.880Z,34.51
2022-09-14T14:31:43.756Z,34.23
2022-09-14T14:37:31.875Z,33.94
2022-09-14T14:40:36.024Z,33.66
2022-09-14T14:43:14.465Z,33.01
2022-09-14T14:45:45.092Z,33.25
2022-09-14T14:48:24.960Z,31.99
2022-09-14T14:51:15.362Z,32.31
2022-09-14T14:56:54.401Z,32.00
2022-09-14T14:59:33.507Z,31.50
2022-09-14T15:02:05.583Z,31.26
2022-09-14T15:04:33.880Z,31.75
2022-09-14T15:07:04.831Z,32.14
2022-09-14T15:10:02.179Z,32.52
2022-09-14T15:12:34.359Z,32.40
2022-09-14T15:15:05.323Z,30.94
2022-09-14T15:17:37.898Z,30.64
2022-09-14T15:20:07.159Z,31.47
2022-09-14T15:22:42.483Z,31.73
2022-09-14T15:25:16.790Z,32.22
2022-09-14T15:27:46.124Z,32.74
2022-09-14T15:30:21.105Z,32.83
2022-09-14T15:32:51.634Z,33.26
2022-09-14T15:35:24.445Z,33.23
2022-09-14T15:37:54.090Z,32.84
2022-09-14T15:40:24.097Z,33.49
2022-09-14T15:42:56.031Z,33.22
2022-09-14T15:45:26.083Z,33.19
2022-09-14T15:47:54.381Z,32.49
2022-09-14T15:50:25.831Z,31.78
2022-09-14T15:53:11.440Z,32.34
2022-09-14T15:55:44.395Z,32.85
2022-09-14T15:58:14.368Z,33.30
2022-09-14T16:00:49.412Z,33.59
2022-09-14T16:03:22.507Z,33.25
2022-09-14T16:05:51.095Z,32.69
2022-09-14T16:08:20.921Z,33.12
2022-09-14T16:10:49.188Z,33.40
2022-09-14T16:13:18.408Z,33.51
2022-09-14T16:15:49.168Z,33.36
2022-09-14T16:18:17.687Z,33.91
2022-09-14T16:24:16.847Z,34.98
2022-09-14T16:27:08.644Z,35.19
2022-09-14T16:29:39.479Z,35.17
2022-09-14T16:37:01.331Z,36.01
2022-09-14T16:39:31.755Z,36.64
2022-09-14T16:46:23.299Z,38.63
2022-09-14T16:48:55.421Z,38.81
2022-09-14T16:54:09.023Z,37.46
2022-09-14T16:56:39.106Z,36.76
2022-09-14T16:59:21.345Z,36.65
2022-09-14T17:01:56.567Z,36.44
2022-09-14T17:04:31.642Z,36.07
2022-09-14T17:10:27.293Z,36.01
2022-09-14T17:13:51.694Z,36.13
2022-09-14T17:16:50.452Z,36.68
2022-09-14T17:19:18.815Z,36.52
2022-09-14T17:25:30.365Z,37.09
2022-09-14T17:28:11.127Z,37.26
2022-09-14T17:30:54.537Z,37.63
2022-09-14T17:33:54.974Z,37.93
2022-09-14T17:36:41.595Z,38.10
2022-09-14T17:39:14.054Z,38.44
2022-09-14T17:41:44.166Z,38.43
2022-09-14T17:44:43.187Z,38.60
2022-09-14T17:48:02.384Z,39.09
2022-09-14T17:50:34.721Z,39.65
2022-09-14T17:53:04.928Z,39.91
2022-09-14T17:55:33.785Z,40.90
2022-09-14T17:58:03.125Z,41.23
2022-09-14T18:00:34.532Z,41.51
2022-09-14T18:03:03.195Z,42.07
2022-09-14T18:05:31.658Z,42.78
2022-09-14T18:08:01.455Z,43.83
2022-09-14T18:10:53.645Z,44.10
2022-09-14T18:13:22.072Z,44.73
2022-09-14T18:16:07.964Z,45.28
2022-09-14T18:18:38.058Z,46.45
2022-09-14T18:21:10.227Z,46.87
2022-09-14T18:23:46.499Z,47.62
2022-09-14T18:26:16.689Z,48.18
2022-09-14T18:28:46.422Z,47.97
2022-09-14T18:31:17.155Z,48.42
2022-09-14T18:33:50.482Z,48.34
2022-09-14T18:36:18.847Z,48.39
2022-09-14T18:38:54.568Z,48.62
2022-09-14T18:41:25.163Z,48.83
2022-09-14T18:43:56.065Z,48.94
2022-09-14T18:46:27.856Z,48.88
2022-09-14T18:48:58.386Z,49.32
2022-09-14T18:51:26.686Z,49.32
2022-09-14T18:53:58.526Z,49.44
2022-09-14T18:56:26.820Z,49.65
2022-09-14T18:58:55.014Z,49.58
2022-09-14T19:01:23.216Z,49.99
2022-09-14T19:03:53.814Z,50.36
2022-09-14T19:06:22.288Z,50.14
2022-09-14T19:09:49.250Z,50.61
2022-09-14T19:15:03.609Z,50.46
2022-09-14T19:17:44.092Z,50.78
2022-09-14T19:20:12.510Z,50.36
2022-09-14T19:22:40.813Z,50.23
2022-09-14T19:25:09.634Z,50.46
2022-09-14T19:27:53.554Z,51.13
2022-09-14T19:30:21.687Z,50.45
2022-09-14T19:32:56.519Z,50.78
2022-09-14T19:35:24.569Z,50.68
2022-09-14T19:37:55.711Z,50.67
2022-09-14T19:40:24.498Z,50.59
2022-09-14T19:43:15.307Z,50.76
2022-09-14T19:45:43.480Z,50.59
2022-09-14T19:48:11.557Z,50.71
2022-09-14T19:50:39.604Z,50.83
2022-09-14T19:53:07.631Z,50.48
2022-09-14T19:55:38.635Z,50.71
2022-09-14T19:58:07.223Z,50.65
2022-09-14T20:00:38.379Z,50.61
2022-09-14T20:03:06.619Z,50.59
2022-09-14T20:05:44.764Z,50.46
2022-09-14T20:08:16.390Z,50.68
2022-09-14T20:10:44.455Z,50.31
2022-09-14T20:13:12.489Z,50.50
2022-09-14T20:15:44.469Z,50.58
2022-09-14T20:18:12.657Z,50.47
2022-09-14T20:20:55.331Z,51.11
2022-09-14T20:23:25.800Z,51.13
2022-09-14T20:25:53.800Z,51.24
2022-09-14T20:28:40.741Z,51.57
2022-09-14T20:31:22.064Z,51.19
2022-09-14T20:33:56.044Z,51.23
2022-09-14T20:36:25.334Z,51.37
2022-09-14T20:39:02.329Z,51.29
2022-09-14T20:41:31.144Z,51.44
2022-09-14T20:44:03.720Z,51.39
2022-09-14T20:46:39.960Z,51.49
2022-09-14T20:49:17.083Z,51.24
2022-09-14T20:52:02.965Z,51.36
2022-09-14T20:54:39.892Z,51.62
2022-09-14T20:57:11.092Z,51.37
2022-09-14T20:59:39.324Z,51.41
2022-09-14T21:03:01.151Z,51.35
2022-09-14T21:05:31.192Z,51.24
2022-09-14T21:08:05.877Z,51.62
2022-09-14T21:10:33.990Z,51.51
2022-09-14T21:13:04.808Z,51.59
2022-09-14T21:15:33.762Z,51.56
2022-09-14T21:18:02.322Z,51.63
2022-09-14T21:20:31.722Z,51.47
2022-09-14T21:22:59.780Z,51.66
2022-09-14T21:25:34.123Z,51.68
2022-09-14T21:28:10.070Z,51.92
2022-09-14T21:30:38.634Z,51.71
2022-09-14T21:33:14.624Z,51.76
2022-09-14T21:35:54.249Z,51.75
2022-09-14T21:38:22.319Z,51.73
2022-09-14T21:40:50.537Z,51.56
2022-09-14T21:43:18.665Z,51.56
2022-09-14T21:45:46.724Z,51.38
2022-09-14T21:48:43.095Z,51.51
2022-09-14T21:51:21.489Z,51.54
2022-09-14T21:53:50.505Z,51.71
2022-09-14T21:56:20.085Z,51.65
2022-09-14T21:58:50.738Z,51.68
2022-09-14T22:01:18.935Z,51.58
2022-09-14T22:03:47.692Z,51.64
2022-09-14T22:06:17.448Z,51.84
2022-09-14T22:08:45.454Z,51.60
2022-09-14T22:11:23.632Z,51.83
2022-09-14T22:14:14.611Z,51.71
2022-09-14T22:16:48.904Z,51.61
2022-09-14T22:19:25.714Z,51.40
2022-09-14T22:22:11.401Z,51.47
2022-09-14T22:24:41.992Z,51.36
2022-09-14T22:27:10.661Z,51.52
2022-09-14T22:29:38.770Z,51.40
2022-09-14T22:32:11.996Z,51.13
2022-09-14T22:34:53.270Z,51.56
2022-09-14T22:37:24.791Z,51.50
2022-09-14T22:40:13.453Z,51.68
2022-09-14T22:42:41.526Z,51.49
2022-09-14T22:45:24.321Z,51.72
2022-09-14T22:47:52.549Z,51.61
2022-09-14T22:50:23.325Z,51.64
2022-09-14T22:52:52.888Z,51.63
2022-09-14T22:55:21.215Z,51.49
2022-09-14T22:57:52.466Z,51.61
2022-09-14T23:00:21.610Z,51.52
2022-09-14T23:02:52.534Z,51.64
2022-09-14T23:05:21.995Z,51.50
2022-09-14T23:07:51.959Z,51.64
2022-09-14T23:10:30.030Z,51.50
2022-09-14T23:12:58.562Z,51.37
2022-09-14T23:15:51.355Z,51.67
2022-09-14T23:18:19.454Z,51.48
2022-09-14T23:20:50.499Z,51.51
2022-09-14T23:26:05.704Z,51.46
2022-09-14T23:28:33.835Z,51.61
2022-09-14T23:31:02.098Z,51.45
2022-09-14T23:33:33.080Z,51.58
2022-09-14T23:36:01.165Z,51.65
2022-09-14T23:38:30.513Z,51.64
2022-09-14T23:41:02.774Z,51.32
2022-09-14T23:43:33.900Z,51.57
2022-09-14T23:46:04.630Z,51.40
2022-09-14T23:48:32.872Z,51.40
2022-09-14T23:51:01.947Z,51.39
2022-09-14T23:53:31.430Z,51.45
2022-09-14T23:56:01.503Z,51.35
2022-09-14T23:58:29.695Z,51.42
